sensor_id;sensor_type;location;lat;lon;timestamp;temperature;humidity
41262;DHT22;29629;52.532;13.352;2023-02-10T00:01:01;2.40;99.90
41262;DHT22;29629;52.532;13.352;2023-02-10T00:03:28;2.40;99.90
41262;DHT22;29629;52.532;13.352;2023-02-10T00:05:56;2.50;99.90
41262;DHT22;29629;52.532;13.352;2023-02-10T00:08:22;2.30;99.90
41262;DHT22;29629;52.532;13.352;2023-02-10T00:10:49;2.30;99.90
41262;DHT22;29629;52.532;13.352;2023-02-10T00:13:16;2.30;99.90
41262;DHT22;29629;52.532;13.352;2023-02-10T00:15:43;2.30;99.90
41262;DHT22;29629;52.532;13.352;2023-02-10T00:18:09;2.20;99.90
41262;DHT22;29629;52.532;13.352;2023-02-10T00:20:36;2.30;99.90
41262;DHT22;29629;52.532;13.352;2023-02-10T00:23:04;2.30;99.90
41262;DHT22;29629;52.532;13.352;2023-02-10T00:25:32;2.30;99.90
41262;DHT22;29629;52.532;13.352;2023-02-10T00:27:59;2.30;99.90
41262;DHT22;29629;52.532;13.352;2023-02-10T00:30:26;2.40;99.90
41262;DHT22;29629;52.532;13.352;2023-02-10T00:32:52;2.40;99.90
41262;DHT22;29629;52.532;13.352;2023-02-10T00:35:19;2.30;99.90
41262;DHT22;29629;52.532;13.352;2023-02-10T00:37:46;2.30;99.90
41262;DHT22;29629;52.532;13.352;2023-02-10T00:40:14;2.30;99.90
41262;DHT22;29629;52.532;13.352;2023-02-10T00:42:41;2.30;99.90
41262;DHT22;29629;52.532;13.352;2023-02-10T00:45:08;2.40;99.90
41262;DHT22;29629;52.532;13.352;2023-02-10T00:47:35;2.50;99.90
41262;DHT22;29629;52.532;13.352;2023-02-10T00:50:01;2.50;99.90
41262;DHT22;29629;52.532;13.352;2023-02-10T00:52:28;2.50;99.90
41262;DHT22;29629;52.532;13.352;2023-02-10T00:54:55;2.50;99.90
41262;DHT22;29629;52.532;13.352;2023-02-10T00:57:23;2.50;99.90
41262;DHT22;29629;52.532;13.352;2023-02-10T00:59:50;2.50;99.90
41262;DHT22;29629;52.532;13.352;2023-02-10T01:02:16;2.50;99.90
41262;DHT22;29629;52.532;13.352;2023-02-10T01:04:43;2.50;99.90
41262;DHT22;29629;52.532;13.352;2023-02-10T01:07:10;2.60;99.90
41262;DHT22;29629;52.532;13.352;2023-02-10T01:09:37;2.60;99.90
41262;DHT22;29629;52.532;13.352;2023-02-10T01:12:04;2.40;99.90
41262;DHT22;29629;52.532;13.352;2023-02-10T01:14:33;2.40;99.90
41262;DHT22;29629;52.532;13.352;2023-02-10T01:16:59;2.40;99.90
41262;DHT22;29629;52.532;13.352;2023-02-10T01:19:26;2.30;99.90
41262;DHT22;29629;52.532;13.352;2023-02-10T01:21:53;2.30;99.90
41262;DHT22;29629;52.532;13.352;2023-02-10T01:24:19;2.30;99.90
41262;DHT22;29629;52.532;13.352;2023-02-10T01:26:46;2.20;99.90
41262;DHT22;29629;52.532;13.352;2023-02-10T01:29:14;2.20;99.90
41262;DHT22;29629;52.532;13.352;2023-02-10T01:31:42;2.10;99.90
41262;DHT22;29629;52.532;13.352;2023-02-10T01:34:09;2.10;99.90
41262;DHT22;29629;52.532;13.352;2023-02-10T01:36:37;2.10;99.90
41262;DHT22;29629;52.532;13.352;2023-02-10T01:39:03;2.00;99.90
41262;DHT22;29629;52.532;13.352;2023-02-10T01:41:30;2.00;99.90
41262;DHT22;29629;52.532;13.352;2023-02-10T01:43:58;2.00;99.90
41262;DHT22;29629;52.532;13.352;2023-02-10T01:46:25;2.00;99.90
41262;DHT22;29629;52.532;13.352;2023-02-10T01:48:53;1.90;99.90
41262;DHT22;29629;52.532;13.352;2023-02-10T01:51:21;2.00;99.90
41262;DHT22;29629;52.532;13.352;2023-02-10T01:53:50;2.00;99.90
41262;DHT22;29629;52.532;13.352;2023-02-10T01:56:17;2.00;99.90
41262;DHT22;29629;52.532;13.352;2023-02-10T01:58:44;1.90;99.90
41262;DHT22;29629;52.532;13.352;2023-02-10T02:01:11;2.00;99.90
41262;DHT22;29629;52.532;13.352;2023-02-10T02:03:38;2.00;99.90
41262;DHT22;29629;52.532;13.352;2023-02-10T02:06:08;2.00;99.90
41262;DHT22;29629;52.532;13.352;2023-02-10T02:08:35;1.90;99.90
41262;DHT22;29629;52.532;13.352;2023-02-10T02:11:04;1.80;99.90
41262;DHT22;29629;52.532;13.352;2023-02-10T02:13:42;1.90;99.90
41262;DHT22;29629;52.532;13.352;2023-02-10T02:16:14;2.00;99.90
41262;DHT22;29629;52.532;13.352;2023-02-10T02:18:45;2.00;99.90
41262;DHT22;29629;52.532;13.352;2023-02-10T02:21:20;1.90;99.90
41262;DHT22;29629;52.532;13.352;2023-02-10T02:24:13;1.90;99.90
41262;DHT22;29629;52.532;13.352;2023-02-10T02:26:47;1.90;99.90
41262;DHT22;29629;52.532;13.352;2023-02-10T02:29:29;1.90;99.90
41262;DHT22;29629;52.532;13.352;2023-02-10T02:32:02;1.80;99.90
41262;DHT22;29629;52.532;13.352;2023-02-10T02:34:33;1.80;99.90
41262;DHT22;29629;52.532;13.352;2023-02-10T02:37:05;1.80;99.90
41262;DHT22;29629;52.532;13.352;2023-02-10T02:39:33;1.80;99.90
41262;DHT22;29629;52.532;13.352;2023-02-10T02:44:41;1.90;99.90
41262;DHT22;29629;52.532;13.352;2023-02-10T02:47:11;1.90;99.90
41262;DHT22;29629;52.532;13.352;2023-02-10T02:49:41;1.90;99.90
41262;DHT22;29629;52.532;13.352;2023-02-10T02:52:10;2.00;99.90
41262;DHT22;29629;52.532;13.352;2023-02-10T02:54:40;1.90;99.90
41262;DHT22;29629;52.532;13.352;2023-02-10T02:57:10;1.90;99.90
41262;DHT22;29629;52.532;13.352;2023-02-10T02:59:39;1.90;99.90
41262;DHT22;29629;52.532;13.352;2023-02-10T03:02:07;1.90;99.90
41262;DHT22;29629;52.532;13.352;2023-02-10T03:04:37;1.90;99.90
41262;DHT22;29629;52.532;13.352;2023-02-10T03:07:05;1.90;99.90
41262;DHT22;29629;52.532;13.352;2023-02-10T03:09:32;1.80;99.90
41262;DHT22;29629;52.532;13.352;2023-02-10T03:11:59;1.80;99.90
41262;DHT22;29629;52.532;13.352;2023-02-10T03:14:26;1.90;99.90
41262;DHT22;29629;52.532;13.352;2023-02-10T03:16:53;1.90;99.90
41262;DHT22;29629;52.532;13.352;2023-02-10T03:19:20;1.90;99.90
41262;DHT22;29629;52.532;13.352;2023-02-10T03:21:48;1.80;99.90
41262;DHT22;29629;52.532;13.352;2023-02-10T03:24:15;1.80;99.90
41262;DHT22;29629;52.532;13.352;2023-02-10T03:26:42;1.80;99.90
41262;DHT22;29629;52.532;13.352;2023-02-10T03:29:09;1.90;99.90
41262;DHT22;29629;52.532;13.352;2023-02-10T03:31:36;1.80;99.90
41262;DHT22;29629;52.532;13.352;2023-02-10T03:34:03;1.90;99.90
41262;DHT22;29629;52.532;13.352;2023-02-10T03:36:30;1.90;99.90
41262;DHT22;29629;52.532;13.352;2023-02-10T03:39:00;1.90;99.90
41262;DHT22;29629;52.532;13.352;2023-02-10T03:41:27;1.90;99.90
41262;DHT22;29629;52.532;13.352;2023-02-10T03:43:54;2.00;99.90
41262;DHT22;29629;52.532;13.352;2023-02-10T03:46:20;2.00;99.90
41262;DHT22;29629;52.532;13.352;2023-02-10T03:48:47;2.00;99.90
41262;DHT22;29629;52.532;13.352;2023-02-10T03:51:14;2.10;99.90
41262;DHT22;29629;52.532;13.352;2023-02-10T03:53:41;2.00;99.90
41262;DHT22;29629;52.532;13.352;2023-02-10T03:56:09;2.10;99.90
41262;DHT22;29629;52.532;13.352;2023-02-10T03:58:36;2.00;99.90
41262;DHT22;29629;52.532;13.352;2023-02-10T04:01:08;2.10;99.90
41262;DHT22;29629;52.532;13.352;2023-02-10T04:03:34;2.10;99.90
41262;DHT22;29629;52.532;13.352;2023-02-10T04:06:01;2.10;99.90
41262;DHT22;29629;52.532;13.352;2023-02-10T04:08:28;2.00;99.90
41262;DHT22;29629;52.532;13.352;2023-02-10T04:10:55;2.00;99.90
41262;DHT22;29629;52.532;13.352;2023-02-10T04:13:23;2.20;99.90
41262;DHT22;29629;52.532;13.352;2023-02-10T04:15:58;2.10;99.90
41262;DHT22;29629;52.532;13.352;2023-02-10T04:18:25;2.00;99.90
41262;DHT22;29629;52.532;13.352;2023-02-10T04:20:52;2.00;99.90
41262;DHT22;29629;52.532;13.352;2023-02-10T04:23:19;2.10;99.90
41262;DHT22;29629;52.532;13.352;2023-02-10T04:25:45;2.00;99.90
41262;DHT22;29629;52.532;13.352;2023-02-10T04:28:12;2.10;99.90
41262;DHT22;29629;52.532;13.352;2023-02-10T04:30:40;2.20;99.90
41262;DHT22;29629;52.532;13.352;2023-02-10T04:33:07;2.20;99.90
41262;DHT22;29629;52.532;13.352;2023-02-10T04:35:34;2.20;99.90
41262;DHT22;29629;52.532;13.352;2023-02-10T04:38:01;2.30;99.90
41262;DHT22;29629;52.532;13.352;2023-02-10T04:40:28;2.30;99.90
41262;DHT22;29629;52.532;13.352;2023-02-10T04:42:55;2.30;99.90
41262;DHT22;29629;52.532;13.352;2023-02-10T04:45:22;2.40;99.90
41262;DHT22;29629;52.532;13.352;2023-02-10T04:47:50;2.40;99.90
41262;DHT22;29629;52.532;13.352;2023-02-10T04:50:17;2.40;99.90
41262;DHT22;29629;52.532;13.352;2023-02-10T04:52:43;2.30;99.90
41262;DHT22;29629;52.532;13.352;2023-02-10T04:55:10;2.50;99.90
41262;DHT22;29629;52.532;13.352;2023-02-10T04:57:37;2.40;99.90
41262;DHT22;29629;52.532;13.352;2023-02-10T05:00:04;2.40;99.90
41262;DHT22;29629;52.532;13.352;2023-02-10T05:02:31;2.40;99.90
41262;DHT22;29629;52.532;13.352;2023-02-10T05:04:59;2.40;99.90
41262;DHT22;29629;52.532;13.352;2023-02-10T05:07:26;2.30;99.90
41262;DHT22;29629;52.532;13.352;2023-02-10T05:09:53;2.30;99.90
41262;DHT22;29629;52.532;13.352;2023-02-10T05:12:20;2.30;99.90
41262;DHT22;29629;52.532;13.352;2023-02-10T05:14:47;2.30;99.90
41262;DHT22;29629;52.532;13.352;2023-02-10T05:17:13;2.40;99.90
41262;DHT22;29629;52.532;13.352;2023-02-10T05:19:40;2.40;99.90
41262;DHT22;29629;52.532;13.352;2023-02-10T05:22:08;2.30;99.90
41262;DHT22;29629;52.532;13.352;2023-02-10T05:24:35;2.40;99.90
41262;DHT22;29629;52.532;13.352;2023-02-10T05:27:02;2.40;99.90
41262;DHT22;29629;52.532;13.352;2023-02-10T05:29:28;2.50;99.90
41262;DHT22;29629;52.532;13.352;2023-02-10T05:31:55;2.40;99.90
41262;DHT22;29629;52.532;13.352;2023-02-10T05:34:22;2.40;99.90
41262;DHT22;29629;52.532;13.352;2023-02-10T05:36:48;2.40;99.90
41262;DHT22;29629;52.532;13.352;2023-02-10T05:39:17;2.40;99.90
41262;DHT22;29629;52.532;13.352;2023-02-10T05:41:49;2.30;99.90
41262;DHT22;29629;52.532;13.352;2023-02-10T05:44:16;2.20;99.90
41262;DHT22;29629;52.532;13.352;2023-02-10T05:46:43;2.20;99.90
41262;DHT22;29629;52.532;13.352;2023-02-10T05:49:10;2.10;99.90
41262;DHT22;29629;52.532;13.352;2023-02-10T05:51:36;2.10;99.90
41262;DHT22;29629;52.532;13.352;2023-02-10T05:54:03;2.10;99.90
41262;DHT22;29629;52.532;13.352;2023-02-10T05:56:31;2.30;99.90
41262;DHT22;29629;52.532;13.352;2023-02-10T05:58:58;2.20;99.90
41262;DHT22;29629;52.532;13.352;2023-02-10T06:01:25;2.20;99.90
41262;DHT22;29629;52.532;13.352;2023-02-10T06:03:52;2.10;99.90
41262;DHT22;29629;52.532;13.352;2023-02-10T06:06:18;2.10;99.90
41262;DHT22;29629;52.532;13.352;2023-02-10T06:08:45;2.00;99.90
41262;DHT22;29629;52.532;13.352;2023-02-10T06:11:12;2.10;99.90
41262;DHT22;29629;52.532;13.352;2023-02-10T06:13:40;2.00;99.90
41262;DHT22;29629;52.532;13.352;2023-02-10T06:16:07;2.00;99.90
41262;DHT22;29629;52.532;13.352;2023-02-10T06:18:34;2.00;99.90
41262;DHT22;29629;52.532;13.352;2023-02-10T06:21:01;2.00;99.90
41262;DHT22;29629;52.532;13.352;2023-02-10T06:23:27;2.00;99.90
41262;DHT22;29629;52.532;13.352;2023-02-10T06:25:54;1.90;99.90
41262;DHT22;29629;52.532;13.352;2023-02-10T06:28:23;2.00;99.90
41262;DHT22;29629;52.532;13.352;2023-02-10T06:30:51;2.00;99.90
41262;DHT22;29629;52.532;13.352;2023-02-10T06:33:18;2.00;99.90
41262;DHT22;29629;52.532;13.352;2023-02-10T06:35:45;2.00;99.90
41262;DHT22;29629;52.532;13.352;2023-02-10T06:38:12;2.00;99.90
41262;DHT22;29629;52.532;13.352;2023-02-10T06:40:39;2.00;99.90
41262;DHT22;29629;52.532;13.352;2023-02-10T06:43:06;1.90;99.90
41262;DHT22;29629;52.532;13.352;2023-02-10T06:45:32;2.00;99.90
41262;DHT22;29629;52.532;13.352;2023-02-10T06:48:01;2.00;99.90
41262;DHT22;29629;52.532;13.352;2023-02-10T06:50:28;1.90;99.90
41262;DHT22;29629;52.532;13.352;2023-02-10T06:52:55;2.00;99.90
41262;DHT22;29629;52.532;13.352;2023-02-10T06:55:21;2.00;99.90
41262;DHT22;29629;52.532;13.352;2023-02-10T06:57:48;2.00;99.90
41262;DHT22;29629;52.532;13.352;2023-02-10T07:00:15;2.00;99.90
41262;DHT22;29629;52.532;13.352;2023-02-10T07:02:42;2.10;99.90
41262;DHT22;29629;52.532;13.352;2023-02-10T07:05:10;2.00;99.90
41262;DHT22;29629;52.532;13.352;2023-02-10T07:07:37;2.20;99.90
41262;DHT22;29629;52.532;13.352;2023-02-10T07:10:04;2.20;99.90
41262;DHT22;29629;52.532;13.352;2023-02-10T07:12:31;2.20;99.90
41262;DHT22;29629;52.532;13.352;2023-02-10T07:14:57;2.30;99.90
41262;DHT22;29629;52.532;13.352;2023-02-10T07:17:24;2.30;99.90
41262;DHT22;29629;52.532;13.352;2023-02-10T07:19:51;2.40;99.90
41262;DHT22;29629;52.532;13.352;2023-02-10T07:22:19;2.40;99.90
41262;DHT22;29629;52.532;13.352;2023-02-10T07:24:47;2.40;99.90
41262;DHT22;29629;52.532;13.352;2023-02-10T07:27:14;2.60;99.90
41262;DHT22;29629;52.532;13.352;2023-02-10T07:29:40;2.60;99.90
41262;DHT22;29629;52.532;13.352;2023-02-10T07:32:07;2.60;99.90
41262;DHT22;29629;52.532;13.352;2023-02-10T07:34:34;2.60;99.90
41262;DHT22;29629;52.532;13.352;2023-02-10T07:37:00;2.70;99.90
41262;DHT22;29629;52.532;13.352;2023-02-10T07:39:29;2.80;99.90
41262;DHT22;29629;52.532;13.352;2023-02-10T07:41:55;2.90;99.90
41262;DHT22;29629;52.532;13.352;2023-02-10T07:44:22;3.00;99.90
41262;DHT22;29629;52.532;13.352;2023-02-10T07:46:50;3.10;99.90
41262;DHT22;29629;52.532;13.352;2023-02-10T07:49:17;3.00;99.90
41262;DHT22;29629;52.532;13.352;2023-02-10T07:51:44;3.00;99.90
41262;DHT22;29629;52.532;13.352;2023-02-10T07:54:11;3.00;99.90
41262;DHT22;29629;52.532;13.352;2023-02-10T07:56:39;3.00;99.90
41262;DHT22;29629;52.532;13.352;2023-02-10T07:59:05;3.00;99.90
41262;DHT22;29629;52.532;13.352;2023-02-10T08:01:32;3.00;99.90
41262;DHT22;29629;52.532;13.352;2023-02-10T08:04:01;3.10;99.90
41262;DHT22;29629;52.532;13.352;2023-02-10T08:06:28;3.30;99.90
41262;DHT22;29629;52.532;13.352;2023-02-10T08:08:55;3.20;99.90
41262;DHT22;29629;52.532;13.352;2023-02-10T08:11:22;3.30;99.90
41262;DHT22;29629;52.532;13.352;2023-02-10T08:13:50;3.50;99.90
41262;DHT22;29629;52.532;13.352;2023-02-10T08:16:17;3.60;99.90
41262;DHT22;29629;52.532;13.352;2023-02-10T08:18:43;3.60;99.90
41262;DHT22;29629;52.532;13.352;2023-02-10T08:21:10;3.90;99.90
41262;DHT22;29629;52.532;13.352;2023-02-10T08:23:37;3.90;99.90
41262;DHT22;29629;52.532;13.352;2023-02-10T08:26:04;3.90;99.90
41262;DHT22;29629;52.532;13.352;2023-02-10T08:28:31;4.00;99.90
41262;DHT22;29629;52.532;13.352;2023-02-10T08:31:00;3.90;99.90
41262;DHT22;29629;52.532;13.352;2023-02-10T08:33:26;4.10;99.90
41262;DHT22;29629;52.532;13.352;2023-02-10T08:35:53;4.10;99.90
41262;DHT22;29629;52.532;13.352;2023-02-10T08:38:20;4.10;99.90
41262;DHT22;29629;52.532;13.352;2023-02-10T08:40:52;3.90;99.90
41262;DHT22;29629;52.532;13.352;2023-02-10T08:43:19;4.00;99.90
41262;DHT22;29629;52.532;13.352;2023-02-10T08:45:46;4.00;99.90
41262;DHT22;29629;52.532;13.352;2023-02-10T08:48:14;4.10;99.90
41262;DHT22;29629;52.532;13.352;2023-02-10T08:50:41;4.30;99.90
41262;DHT22;29629;52.532;13.352;2023-02-10T08:53:07;4.10;99.90
41262;DHT22;29629;52.532;13.352;2023-02-10T08:55:35;4.10;99.90
41262;DHT22;29629;52.532;13.352;2023-02-10T08:58:02;4.20;99.90
41262;DHT22;29629;52.532;13.352;2023-02-10T09:00:29;4.20;99.90
41262;DHT22;29629;52.532;13.352;2023-02-10T09:02:56;4.20;99.90
41262;DHT22;29629;52.532;13.352;2023-02-10T09:05:24;4.30;99.90
41262;DHT22;29629;52.532;13.352;2023-02-10T09:07:51;4.60;99.90
41262;DHT22;29629;52.532;13.352;2023-02-10T09:10:17;4.70;99.90
41262;DHT22;29629;52.532;13.352;2023-02-10T09:12:44;4.70;99.90
41262;DHT22;29629;52.532;13.352;2023-02-10T09:15:11;4.80;99.90
41262;DHT22;29629;52.532;13.352;2023-02-10T09:17:38;4.80;99.90
41262;DHT22;29629;52.532;13.352;2023-02-10T09:20:05;4.70;99.90
41262;DHT22;29629;52.532;13.352;2023-02-10T09:22:33;4.90;99.90
41262;DHT22;29629;52.532;13.352;2023-02-10T09:25:00;5.20;99.90
41262;DHT22;29629;52.532;13.352;2023-02-10T09:27:27;4.90;99.90
41262;DHT22;29629;52.532;13.352;2023-02-10T09:29:54;4.70;99.90
41262;DHT22;29629;52.532;13.352;2023-02-10T09:32:20;4.80;99.90
41262;DHT22;29629;52.532;13.352;2023-02-10T09:34:47;4.70;99.90
41262;DHT22;29629;52.532;13.352;2023-02-10T09:37:14;4.70;99.90
41262;DHT22;29629;52.532;13.352;2023-02-10T09:39:42;4.70;99.90
41262;DHT22;29629;52.532;13.352;2023-02-10T09:42:09;4.60;99.90
41262;DHT22;29629;52.532;13.352;2023-02-10T09:44:40;4.50;99.90
41262;DHT22;29629;52.532;13.352;2023-02-10T09:47:15;4.60;99.90
41262;DHT22;29629;52.532;13.352;2023-02-10T09:49:49;4.70;99.90
41262;DHT22;29629;52.532;13.352;2023-02-10T09:52:20;4.80;99.90
41262;DHT22;29629;52.532;13.352;2023-02-10T09:54:52;4.70;99.90
41262;DHT22;29629;52.532;13.352;2023-02-10T09:57:21;4.70;99.90
41262;DHT22;29629;52.532;13.352;2023-02-10T09:59:49;4.70;99.90
41262;DHT22;29629;52.532;13.352;2023-02-10T10:02:19;4.70;99.90
41262;DHT22;29629;52.532;13.352;2023-02-10T10:04:47;4.80;99.90
41262;DHT22;29629;52.532;13.352;2023-02-10T10:07:17;4.90;99.90
41262;DHT22;29629;52.532;13.352;2023-02-10T10:09:46;4.70;99.90
41262;DHT22;29629;52.532;13.352;2023-02-10T10:12:18;4.70;99.90
41262;DHT22;29629;52.532;13.352;2023-02-10T10:14:46;4.90;99.90
41262;DHT22;29629;52.532;13.352;2023-02-10T10:20:00;5.00;99.90
41262;DHT22;29629;52.532;13.352;2023-02-10T10:22:32;4.90;99.90
41262;DHT22;29629;52.532;13.352;2023-02-10T10:25:12;5.00;99.90
41262;DHT22;29629;52.532;13.352;2023-02-10T10:27:46;4.90;99.90
41262;DHT22;29629;52.532;13.352;2023-02-10T10:30:17;4.90;99.90
41262;DHT22;29629;52.532;13.352;2023-02-10T10:32:45;5.00;99.90
41262;DHT22;29629;52.532;13.352;2023-02-10T10:35:14;5.00;99.90
41262;DHT22;29629;52.532;13.352;2023-02-10T10:37:43;5.20;99.90
41262;DHT22;29629;52.532;13.352;2023-02-10T10:40:13;5.20;99.90
41262;DHT22;29629;52.532;13.352;2023-02-10T10:42:41;5.20;99.90
41262;DHT22;29629;52.532;13.352;2023-02-10T10:45:13;5.20;99.90
41262;DHT22;29629;52.532;13.352;2023-02-10T10:47:42;5.20;99.90
41262;DHT22;29629;52.532;13.352;2023-02-10T10:50:12;5.20;99.90
41262;DHT22;29629;52.532;13.352;2023-02-10T10:52:39;5.30;99.90
41262;DHT22;29629;52.532;13.352;2023-02-10T10:55:08;5.30;99.90
41262;DHT22;29629;52.532;13.352;2023-02-10T10:57:36;5.40;99.90
41262;DHT22;29629;52.532;13.352;2023-02-10T11:00:05;5.40;99.90
41262;DHT22;29629;52.532;13.352;2023-02-10T11:02:34;5.70;99.90
41262;DHT22;29629;52.532;13.352;2023-02-10T11:05:01;5.80;99.90
41262;DHT22;29629;52.532;13.352;2023-02-10T11:07:28;6.10;99.90
41262;DHT22;29629;52.532;13.352;2023-02-10T11:09:57;5.90;99.90
41262;DHT22;29629;52.532;13.352;2023-02-10T11:12:27;5.90;99.90
41262;DHT22;29629;52.532;13.352;2023-02-10T11:14:54;6.20;99.90
41262;DHT22;29629;52.532;13.352;2023-02-10T11:17:23;6.10;99.90
41262;DHT22;29629;52.532;13.352;2023-02-10T11:19:56;6.30;99.90
41262;DHT22;29629;52.532;13.352;2023-02-10T11:22:23;6.40;99.90
41262;DHT22;29629;52.532;13.352;2023-02-10T11:24:51;6.60;99.90
41262;DHT22;29629;52.532;13.352;2023-02-10T11:27:18;6.70;99.90
41262;DHT22;29629;52.532;13.352;2023-02-10T11:29:46;6.90;99.90
41262;DHT22;29629;52.532;13.352;2023-02-10T11:32:19;6.80;99.90
41262;DHT22;29629;52.532;13.352;2023-02-10T11:34:47;6.80;99.90
41262;DHT22;29629;52.532;13.352;2023-02-10T11:37:20;6.70;99.90
41262;DHT22;29629;52.532;13.352;2023-02-10T11:39:48;6.80;99.90
41262;DHT22;29629;52.532;13.352;2023-02-10T11:42:16;6.90;99.90
41262;DHT22;29629;52.532;13.352;2023-02-10T11:44:51;6.90;99.90
41262;DHT22;29629;52.532;13.352;2023-02-10T11:47:19;7.30;99.90
41262;DHT22;29629;52.532;13.352;2023-02-10T11:49:46;7.10;99.90
41262;DHT22;29629;52.532;13.352;2023-02-10T11:52:15;7.30;99.90
41262;DHT22;29629;52.532;13.352;2023-02-10T11:54:43;7.20;99.90
41262;DHT22;29629;52.532;13.352;2023-02-10T11:57:19;6.90;99.90
41262;DHT22;29629;52.532;13.352;2023-02-10T12:00:10;7.20;99.90
41262;DHT22;29629;52.532;13.352;2023-02-10T12:02:46;7.20;99.90
41262;DHT22;29629;52.532;13.352;2023-02-10T12:05:21;6.90;99.90
41262;DHT22;29629;52.532;13.352;2023-02-10T12:07:56;7.10;99.90
41262;DHT22;29629;52.532;13.352;2023-02-10T12:10:27;7.00;99.90
41262;DHT22;29629;52.532;13.352;2023-02-10T12:12:57;7.30;99.90
41262;DHT22;29629;52.532;13.352;2023-02-10T12:15:32;7.20;99.90
41262;DHT22;29629;52.532;13.352;2023-02-10T12:18:04;7.20;99.90
41262;DHT22;29629;52.532;13.352;2023-02-10T12:20:38;7.20;99.90
41262;DHT22;29629;52.532;13.352;2023-02-10T12:23:19;7.50;99.90
41262;DHT22;29629;52.532;13.352;2023-02-10T12:25:56;7.40;99.90
41262;DHT22;29629;52.532;13.352;2023-02-10T12:28:31;7.80;99.90
41262;DHT22;29629;52.532;13.352;2023-02-10T12:31:03;7.70;99.90
41262;DHT22;29629;52.532;13.352;2023-02-10T12:33:38;7.90;99.90
41262;DHT22;29629;52.532;13.352;2023-02-10T12:36:11;7.90;99.90
41262;DHT22;29629;52.532;13.352;2023-02-10T12:38:45;8.60;99.90
41262;DHT22;29629;52.532;13.352;2023-02-10T12:41:18;8.00;99.90
41262;DHT22;29629;52.532;13.352;2023-02-10T12:43:59;8.40;99.90
41262;DHT22;29629;52.532;13.352;2023-02-10T12:46:32;8.30;99.90
41262;DHT22;29629;52.532;13.352;2023-02-10T12:49:08;7.90;99.90
41262;DHT22;29629;52.532;13.352;2023-02-10T12:51:40;7.40;99.90
41262;DHT22;29629;52.532;13.352;2023-02-10T12:54:11;7.10;99.90
41262;DHT22;29629;52.532;13.352;2023-02-10T12:56:41;6.80;99.90
41262;DHT22;29629;52.532;13.352;2023-02-10T12:59:11;6.90;99.90
41262;DHT22;29629;52.532;13.352;2023-02-10T13:01:40;6.90;99.90
41262;DHT22;29629;52.532;13.352;2023-02-10T13:04:11;6.80;99.90
41262;DHT22;29629;52.532;13.352;2023-02-10T13:06:44;6.90;99.90
41262;DHT22;29629;52.532;13.352;2023-02-10T13:09:14;7.30;99.90
41262;DHT22;29629;52.532;13.352;2023-02-10T13:11:45;7.30;99.90
41262;DHT22;29629;52.532;13.352;2023-02-10T13:14:16;7.00;99.90
41262;DHT22;29629;52.532;13.352;2023-02-10T13:16:46;7.30;99.90
41262;DHT22;29629;52.532;13.352;2023-02-10T13:19:19;7.30;99.90
41262;DHT22;29629;52.532;13.352;2023-02-10T13:21:52;7.30;99.90
41262;DHT22;29629;52.532;13.352;2023-02-10T13:24:21;7.10;99.90
41262;DHT22;29629;52.532;13.352;2023-02-10T13:26:54;7.10;99.90
41262;DHT22;29629;52.532;13.352;2023-02-10T13:29:25;7.00;99.90
41262;DHT22;29629;52.532;13.352;2023-02-10T13:32:03;7.20;99.90
41262;DHT22;29629;52.532;13.352;2023-02-10T13:34:35;7.10;99.90
41262;DHT22;29629;52.532;13.352;2023-02-10T13:37:07;7.10;99.90
41262;DHT22;29629;52.532;13.352;2023-02-10T13:39:34;7.10;99.90
41262;DHT22;29629;52.532;13.352;2023-02-10T13:42:05;7.10;99.90
41262;DHT22;29629;52.532;13.352;2023-02-10T13:44:33;7.10;99.90
41262;DHT22;29629;52.532;13.352;2023-02-10T13:47:13;7.10;99.90
41262;DHT22;29629;52.532;13.352;2023-02-10T13:49:47;7.10;99.90
41262;DHT22;29629;52.532;13.352;2023-02-10T13:52:16;6.90;99.90
41262;DHT22;29629;52.532;13.352;2023-02-10T13:54:52;6.90;99.90
41262;DHT22;29629;52.532;13.352;2023-02-10T13:57:26;6.70;99.90
41262;DHT22;29629;52.532;13.352;2023-02-10T13:59:53;6.80;99.90
41262;DHT22;29629;52.532;13.352;2023-02-10T14:02:20;6.90;99.90
41262;DHT22;29629;52.532;13.352;2023-02-10T14:04:48;6.90;99.90
41262;DHT22;29629;52.532;13.352;2023-02-10T14:07:16;6.90;99.90
41262;DHT22;29629;52.532;13.352;2023-02-10T14:10:01;6.90;99.90
41262;DHT22;29629;52.532;13.352;2023-02-10T14:12:29;7.00;99.90
41262;DHT22;29629;52.532;13.352;2023-02-10T14:14:56;7.30;99.90
41262;DHT22;29629;52.532;13.352;2023-02-10T14:17:34;7.10;99.90
41262;DHT22;29629;52.532;13.352;2023-02-10T14:20:01;7.10;99.90
41262;DHT22;29629;52.532;13.352;2023-02-10T14:22:37;7.10;99.90
41262;DHT22;29629;52.532;13.352;2023-02-10T14:25:04;7.00;99.90
41262;DHT22;29629;52.532;13.352;2023-02-10T14:27:41;6.80;99.90
41262;DHT22;29629;52.532;13.352;2023-02-10T14:30:15;7.00;99.90
41262;DHT22;29629;52.532;13.352;2023-02-10T14:32:45;7.10;99.90
41262;DHT22;29629;52.532;13.352;2023-02-10T14:35:14;7.10;99.90
41262;DHT22;29629;52.532;13.352;2023-02-10T14:37:47;7.20;99.90
41262;DHT22;29629;52.532;13.352;2023-02-10T14:40:15;7.00;99.90
41262;DHT22;29629;52.532;13.352;2023-02-10T14:42:43;7.00;99.90
41262;DHT22;29629;52.532;13.352;2023-02-10T14:45:16;6.90;99.90
41262;DHT22;29629;52.532;13.352;2023-02-10T14:47:44;6.90;99.90
41262;DHT22;29629;52.532;13.352;2023-02-10T14:50:20;7.00;99.90
41262;DHT22;29629;52.532;13.352;2023-02-10T14:52:47;6.70;99.90
41262;DHT22;29629;52.532;13.352;2023-02-10T14:55:22;6.70;99.90
41262;DHT22;29629;52.532;13.352;2023-02-10T14:57:50;6.70;99.90
41262;DHT22;29629;52.532;13.352;2023-02-10T15:00:17;6.70;99.90
41262;DHT22;29629;52.532;13.352;2023-02-10T15:02:45;6.70;99.90
41262;DHT22;29629;52.532;13.352;2023-02-10T15:05:16;6.80;99.90
41262;DHT22;29629;52.532;13.352;2023-02-10T15:07:44;6.60;99.90
41262;DHT22;29629;52.532;13.352;2023-02-10T15:10:14;6.50;99.90
41262;DHT22;29629;52.532;13.352;2023-02-10T15:12:42;6.50;99.90
41262;DHT22;29629;52.532;13.352;2023-02-10T15:15:16;6.50;99.90
41262;DHT22;29629;52.532;13.352;2023-02-10T15:17:45;6.40;99.90
41262;DHT22;29629;52.532;13.352;2023-02-10T15:20:20;6.50;99.90
41262;DHT22;29629;52.532;13.352;2023-02-10T15:22:49;6.40;99.90
41262;DHT22;29629;52.532;13.352;2023-02-10T15:28:00;6.30;99.90
41262;DHT22;29629;52.532;13.352;2023-02-10T15:30:28;6.30;99.90
41262;DHT22;29629;52.532;13.352;2023-02-10T15:32:56;6.40;99.90
41262;DHT22;29629;52.532;13.352;2023-02-10T15:35:23;6.30;99.90
41262;DHT22;29629;52.532;13.352;2023-02-10T15:37:50;6.20;99.90
41262;DHT22;29629;52.532;13.352;2023-02-10T15:40:18;6.10;99.90
41262;DHT22;29629;52.532;13.352;2023-02-10T15:42:54;6.10;99.90
41262;DHT22;29629;52.532;13.352;2023-02-10T15:45:22;6.00;99.90
41262;DHT22;29629;52.532;13.352;2023-02-10T15:47:57;5.90;99.90